Direction — WDD4634 — position and weather

sailwx.info

Track history (hours):
 
Tides and Currents Weather Stations Pressure Air Temp Water Temp Dewpoint Dewpoint Depression Visibility Wind Speed Wind Dir Waves Ship Positions

Direction

More information available from US FCC via Universal Licensing System and Coast Guard Vessel Documentation Center.

Last reported at 2014-Aug-28 02:33 UTC. Time now 2014-Aug-30 08:35 UTC.
Position N 41°27' W 068°34'.

Length 25 m.

Type: Fishing. MMSI: 367147350.

Date/timePositionNaut miles runAvg speedWind from/ knotsBaromVisibWave heightAir tempDewpointWater temp
2014-Aug-28 02:33N 41°27' W 068°34'9 8.9
2014-Aug-28 01:33N 41°27' W 068°46'9 9.1
2014-Aug-28 00:33N 41°27' W 068°58'12 9.2
2014-Aug-27 23:14N 41°26' W 069°14'6 9.1
2014-Aug-27 22:33N 41°26' W 069°22'25 8.2
2014-Aug-27 19:33N 41°24' W 069°55'8 7.9
2014-Aug-27 18:33N 41°26' W 070°05'9 8.4
2014-Aug-27 17:29N 41°27' W 070°17'9 9.4
2014-Aug-27 16:33N 41°28' W 070°29'1010.0
2014-Aug-27 15:31N 41°31' W 070°42'8 8.2
2014-Aug-27 14:32N 41°34' W 070°52'  
Track history (hours):
 
Tides and Currents Weather Stations Pressure Air Temp Water Temp Dewpoint Dewpoint Depression Visibility Wind Speed Wind Dir Waves Ship Positions

Direction

More information available from US FCC via Universal Licensing System and Coast Guard Vessel Documentation Center.

Last reported at 2014-Aug-28 02:33 UTC. Time now 2014-Aug-30 08:35 UTC.
Position N 41°27' W 068°34'.

Length 25 m.

Type: Fishing. MMSI: 367147350.

Date/timePositionNaut miles runAvg speedWind from/ knotsBaromVisibWave heightAir tempDewpointWater temp
2014-Aug-28 02:33N 41°27' W 068°34'9 8.9
2014-Aug-28 01:33N 41°27' W 068°46'9 9.1
2014-Aug-28 00:33N 41°27' W 068°58'12 9.2
2014-Aug-27 23:14N 41°26' W 069°14'6 9.1
2014-Aug-27 22:33N 41°26' W 069°22'25 8.2
2014-Aug-27 19:33N 41°24' W 069°55'8 7.9
2014-Aug-27 18:33N 41°26' W 070°05'9 8.4
2014-Aug-27 17:29N 41°27' W 070°17'9 9.4
2014-Aug-27 16:33N 41°28' W 070°29'1010.0
2014-Aug-27 15:31N 41°31' W 070°42'8 8.2
2014-Aug-27 14:32N 41°34' W 070°52'  

Dump ship's entire track history